sensor_id;sensor_type;location;lat;lon;timestamp;temperature;humidity
55711;DHT22;41612;51.994;5.880;2023-07-31T00:00:35;16.00;85.00
55711;DHT22;41612;51.994;5.880;2023-07-31T00:03:03;16.10;85.00
55711;DHT22;41612;51.994;5.880;2023-07-31T00:05:28;16.10;84.90
55711;DHT22;41612;51.994;5.880;2023-07-31T00:07:54;16.20;84.90
55711;DHT22;41612;51.994;5.880;2023-07-31T00:10:20;16.20;84.80
55711;DHT22;41612;51.994;5.880;2023-07-31T00:12:46;16.20;84.80
55711;DHT22;41612;51.994;5.880;2023-07-31T00:15:13;16.20;84.70
55711;DHT22;41612;51.994;5.880;2023-07-31T00:17:40;16.20;84.70
55711;DHT22;41612;51.994;5.880;2023-07-31T00:20:06;16.20;84.60
55711;DHT22;41612;51.994;5.880;2023-07-31T00:22:32;16.20;85.00
55711;DHT22;41612;51.994;5.880;2023-07-31T00:24:57;16.10;85.00
55711;DHT22;41612;51.994;5.880;2023-07-31T00:27:25;16.20;85.40
55711;DHT22;41612;51.994;5.880;2023-07-31T00:29:51;16.20;85.10
55711;DHT22;41612;51.994;5.880;2023-07-31T00:32:16;16.20;85.10
55711;DHT22;41612;51.994;5.880;2023-07-31T00:34:42;16.20;84.70
55711;DHT22;41612;51.994;5.880;2023-07-31T00:37:08;16.20;85.10
55711;DHT22;41612;51.994;5.880;2023-07-31T00:39:34;16.20;84.80
55711;DHT22;41612;51.994;5.880;2023-07-31T00:42:01;16.30;84.00
55711;DHT22;41612;51.994;5.880;2023-07-31T00:44:30;16.30;84.20
55711;DHT22;41612;51.994;5.880;2023-07-31T00:46:56;16.40;83.80
55711;DHT22;41612;51.994;5.880;2023-07-31T00:49:23;16.50;83.90
55711;DHT22;41612;51.994;5.880;2023-07-31T00:51:49;16.50;83.60
55711;DHT22;41612;51.994;5.880;2023-07-31T00:54:14;16.50;83.60
55711;DHT22;41612;51.994;5.880;2023-07-31T00:56:41;16.60;83.60
55711;DHT22;41612;51.994;5.880;2023-07-31T00:59:07;16.60;84.10
55711;DHT22;41612;51.994;5.880;2023-07-31T01:01:33;16.60;83.50
55711;DHT22;41612;51.994;5.880;2023-07-31T01:04:01;16.70;83.50
55711;DHT22;41612;51.994;5.880;2023-07-31T01:09:02;16.70;84.80
55711;DHT22;41612;51.994;5.880;2023-07-31T01:11:42;16.70;84.90
55711;DHT22;41612;51.994;5.880;2023-07-31T01:14:08;16.80;85.20
55711;DHT22;41612;51.994;5.880;2023-07-31T01:16:34;16.80;83.90
55711;DHT22;41612;51.994;5.880;2023-07-31T01:19:00;16.80;82.80
55711;DHT22;41612;51.994;5.880;2023-07-31T01:27:17;16.90;85.20
55711;DHT22;41612;51.994;5.880;2023-07-31T01:29:55;16.90;85.10
55711;DHT22;41612;51.994;5.880;2023-07-31T01:32:22;16.90;85.00
55711;DHT22;41612;51.994;5.880;2023-07-31T01:34:50;16.90;85.40
55711;DHT22;41612;51.994;5.880;2023-07-31T01:37:16;16.90;85.10
55711;DHT22;41612;51.994;5.880;2023-07-31T01:39:42;16.90;85.30
55711;DHT22;41612;51.994;5.880;2023-07-31T01:42:08;16.90;84.10
55711;DHT22;41612;51.994;5.880;2023-07-31T01:44:33;17.00;84.50
55711;DHT22;41612;51.994;5.880;2023-07-31T01:46:59;17.00;84.80
55711;DHT22;41612;51.994;5.880;2023-07-31T01:49:26;17.00;84.70
55711;DHT22;41612;51.994;5.880;2023-07-31T01:51:51;17.00;85.40
55711;DHT22;41612;51.994;5.880;2023-07-31T01:54:17;17.00;84.40
55711;DHT22;41612;51.994;5.880;2023-07-31T01:56:43;17.10;83.10
55711;DHT22;41612;51.994;5.880;2023-07-31T01:59:08;17.10;84.50
55711;DHT22;41612;51.994;5.880;2023-07-31T02:01:34;17.10;84.50
55711;DHT22;41612;51.994;5.880;2023-07-31T02:04:00;17.10;84.30
55711;DHT22;41612;51.994;5.880;2023-07-31T02:06:25;17.20;84.10
55711;DHT22;41612;51.994;5.880;2023-07-31T02:08:51;17.10;84.90
55711;DHT22;41612;51.994;5.880;2023-07-31T02:11:17;17.10;83.80
55711;DHT22;41612;51.994;5.880;2023-07-31T02:13:43;17.10;84.70
55711;DHT22;41612;51.994;5.880;2023-07-31T02:16:08;17.00;85.60
55711;DHT22;41612;51.994;5.880;2023-07-31T02:18:34;16.90;84.90
55711;DHT22;41612;51.994;5.880;2023-07-31T02:21:01;16.80;84.60
55711;DHT22;41612;51.994;5.880;2023-07-31T02:23:27;16.70;85.10
55711;DHT22;41612;51.994;5.880;2023-07-31T02:25:52;16.70;86.20
55711;DHT22;41612;51.994;5.880;2023-07-31T02:28:18;16.70;86.00
55711;DHT22;41612;51.994;5.880;2023-07-31T02:30:44;16.70;86.40
55711;DHT22;41612;51.994;5.880;2023-07-31T02:33:11;16.70;86.70
55711;DHT22;41612;51.994;5.880;2023-07-31T02:35:37;16.70;86.30
55711;DHT22;41612;51.994;5.880;2023-07-31T02:38:03;16.70;86.40
55711;DHT22;41612;51.994;5.880;2023-07-31T02:40:28;16.70;86.20
55711;DHT22;41612;51.994;5.880;2023-07-31T02:42:54;16.60;86.10
55711;DHT22;41612;51.994;5.880;2023-07-31T02:45:20;16.60;86.60
55711;DHT22;41612;51.994;5.880;2023-07-31T02:47:46;16.60;87.30
55711;DHT22;41612;51.994;5.880;2023-07-31T02:50:11;16.60;85.80
55711;DHT22;41612;51.994;5.880;2023-07-31T02:52:37;16.70;86.60
55711;DHT22;41612;51.994;5.880;2023-07-31T02:55:03;16.70;86.90
55711;DHT22;41612;51.994;5.880;2023-07-31T02:57:29;16.60;86.90
55711;DHT22;41612;51.994;5.880;2023-07-31T02:59:54;16.60;87.40
55711;DHT22;41612;51.994;5.880;2023-07-31T03:02:20;16.50;86.70
55711;DHT22;41612;51.994;5.880;2023-07-31T03:04:46;16.50;87.30
55711;DHT22;41612;51.994;5.880;2023-07-31T03:07:11;16.60;87.50
55711;DHT22;41612;51.994;5.880;2023-07-31T03:09:37;16.60;86.30
55711;DHT22;41612;51.994;5.880;2023-07-31T03:12:03;16.60;87.00
55711;DHT22;41612;51.994;5.880;2023-07-31T03:14:29;16.60;87.40
55711;DHT22;41612;51.994;5.880;2023-07-31T03:16:55;16.60;86.50
55711;DHT22;41612;51.994;5.880;2023-07-31T03:19:20;16.50;85.80
55711;DHT22;41612;51.994;5.880;2023-07-31T03:21:46;16.50;85.90
55711;DHT22;41612;51.994;5.880;2023-07-31T03:24:12;16.50;86.20
55711;DHT22;41612;51.994;5.880;2023-07-31T03:26:38;16.50;86.20
55711;DHT22;41612;51.994;5.880;2023-07-31T03:29:07;16.50;85.30
55711;DHT22;41612;51.994;5.880;2023-07-31T03:31:32;16.50;86.00
55711;DHT22;41612;51.994;5.880;2023-07-31T03:33:58;16.50;86.00
55711;DHT22;41612;51.994;5.880;2023-07-31T03:36:24;16.40;86.50
55711;DHT22;41612;51.994;5.880;2023-07-31T03:38:51;16.40;86.30
55711;DHT22;41612;51.994;5.880;2023-07-31T03:41:17;16.40;85.20
55711;DHT22;41612;51.994;5.880;2023-07-31T03:43:46;16.40;85.50
55711;DHT22;41612;51.994;5.880;2023-07-31T03:46:12;16.40;86.40
55711;DHT22;41612;51.994;5.880;2023-07-31T03:48:37;16.30;86.10
55711;DHT22;41612;51.994;5.880;2023-07-31T03:51:03;16.40;86.00
55711;DHT22;41612;51.994;5.880;2023-07-31T03:53:31;16.40;86.30
55711;DHT22;41612;51.994;5.880;2023-07-31T03:55:56;16.40;85.90
55711;DHT22;41612;51.994;5.880;2023-07-31T03:58:22;16.40;86.20
55711;DHT22;41612;51.994;5.880;2023-07-31T04:00:48;16.40;86.30
55711;DHT22;41612;51.994;5.880;2023-07-31T04:03:13;16.40;86.10
55711;DHT22;41612;51.994;5.880;2023-07-31T04:05:39;16.40;86.30
55711;DHT22;41612;51.994;5.880;2023-07-31T04:08:05;16.30;85.80
55711;DHT22;41612;51.994;5.880;2023-07-31T04:10:31;16.30;85.40
55711;DHT22;41612;51.994;5.880;2023-07-31T04:12:59;16.40;85.10
55711;DHT22;41612;51.994;5.880;2023-07-31T04:15:25;16.40;84.70
55711;DHT22;41612;51.994;5.880;2023-07-31T04:17:51;16.40;84.50
55711;DHT22;41612;51.994;5.880;2023-07-31T04:20:17;16.40;85.10
55711;DHT22;41612;51.994;5.880;2023-07-31T04:22:42;16.40;85.40
55711;DHT22;41612;51.994;5.880;2023-07-31T04:25:08;16.40;85.20
55711;DHT22;41612;51.994;5.880;2023-07-31T04:27:34;16.40;85.40
55711;DHT22;41612;51.994;5.880;2023-07-31T04:30:00;16.40;84.70
55711;DHT22;41612;51.994;5.880;2023-07-31T04:32:25;16.50;84.60
55711;DHT22;41612;51.994;5.880;2023-07-31T04:34:51;16.50;84.60
55711;DHT22;41612;51.994;5.880;2023-07-31T04:37:16;16.50;84.80
55711;DHT22;41612;51.994;5.880;2023-07-31T04:39:42;16.50;84.80
55711;DHT22;41612;51.994;5.880;2023-07-31T04:42:08;16.50;84.20
55711;DHT22;41612;51.994;5.880;2023-07-31T04:44:33;16.60;83.70
55711;DHT22;41612;51.994;5.880;2023-07-31T04:46:59;16.60;83.70
55711;DHT22;41612;51.994;5.880;2023-07-31T04:49:25;16.60;84.40
55711;DHT22;41612;51.994;5.880;2023-07-31T04:51:50;16.60;84.40
55711;DHT22;41612;51.994;5.880;2023-07-31T04:54:16;16.60;83.40
55711;DHT22;41612;51.994;5.880;2023-07-31T04:56:42;16.60;83.00
55711;DHT22;41612;51.994;5.880;2023-07-31T04:59:08;16.60;83.30
55711;DHT22;41612;51.994;5.880;2023-07-31T05:01:33;16.60;83.10
55711;DHT22;41612;51.994;5.880;2023-07-31T05:03:59;16.60;83.70
55711;DHT22;41612;51.994;5.880;2023-07-31T05:06:25;16.60;84.10
55711;DHT22;41612;51.994;5.880;2023-07-31T05:08:50;16.60;83.80
55711;DHT22;41612;51.994;5.880;2023-07-31T05:11:16;16.60;84.20
55711;DHT22;41612;51.994;5.880;2023-07-31T05:13:42;16.60;83.50
55711;DHT22;41612;51.994;5.880;2023-07-31T05:16:07;16.60;83.70
55711;DHT22;41612;51.994;5.880;2023-07-31T05:18:33;16.70;84.00
55711;DHT22;41612;51.994;5.880;2023-07-31T05:20:59;16.60;83.50
55711;DHT22;41612;51.994;5.880;2023-07-31T05:23:24;16.60;83.50
55711;DHT22;41612;51.994;5.880;2023-07-31T05:25:50;16.50;83.90
55711;DHT22;41612;51.994;5.880;2023-07-31T05:28:16;16.50;83.50
55711;DHT22;41612;51.994;5.880;2023-07-31T05:30:41;16.50;84.30
55711;DHT22;41612;51.994;5.880;2023-07-31T05:33:07;16.50;83.80
55711;DHT22;41612;51.994;5.880;2023-07-31T05:35:32;16.50;83.20
55711;DHT22;41612;51.994;5.880;2023-07-31T05:37:58;16.50;83.00
55711;DHT22;41612;51.994;5.880;2023-07-31T05:40:24;16.50;84.30
55711;DHT22;41612;51.994;5.880;2023-07-31T05:42:49;16.40;84.50
55711;DHT22;41612;51.994;5.880;2023-07-31T05:45:15;16.50;84.40
55711;DHT22;41612;51.994;5.880;2023-07-31T05:47:41;16.40;85.00
55711;DHT22;41612;51.994;5.880;2023-07-31T05:50:07;16.40;85.10
55711;DHT22;41612;51.994;5.880;2023-07-31T05:52:33;16.40;85.00
55711;DHT22;41612;51.994;5.880;2023-07-31T05:54:58;16.40;85.40
55711;DHT22;41612;51.994;5.880;2023-07-31T05:57:24;16.30;86.20
55711;DHT22;41612;51.994;5.880;2023-07-31T05:59:49;16.20;86.30
55711;DHT22;41612;51.994;5.880;2023-07-31T06:02:15;16.20;86.50
55711;DHT22;41612;51.994;5.880;2023-07-31T06:04:41;16.20;86.30
55711;DHT22;41612;51.994;5.880;2023-07-31T06:07:06;16.20;86.40
55711;DHT22;41612;51.994;5.880;2023-07-31T06:09:32;16.20;87.00
55711;DHT22;41612;51.994;5.880;2023-07-31T06:11:58;16.20;87.00
55711;DHT22;41612;51.994;5.880;2023-07-31T06:14:24;16.20;87.50
55711;DHT22;41612;51.994;5.880;2023-07-31T06:16:49;16.30;86.50
55711;DHT22;41612;51.994;5.880;2023-07-31T06:19:15;16.30;87.10
55711;DHT22;41612;51.994;5.880;2023-07-31T06:21:41;16.30;87.20
55711;DHT22;41612;51.994;5.880;2023-07-31T06:24:08;16.30;87.70
55711;DHT22;41612;51.994;5.880;2023-07-31T06:26:34;16.30;86.70
55711;DHT22;41612;51.994;5.880;2023-07-31T06:29:00;16.30;86.10
55711;DHT22;41612;51.994;5.880;2023-07-31T06:31:25;16.30;86.70
55711;DHT22;41612;51.994;5.880;2023-07-31T06:33:51;16.40;87.30
55711;DHT22;41612;51.994;5.880;2023-07-31T06:36:18;16.40;87.30
55711;DHT22;41612;51.994;5.880;2023-07-31T06:38:44;16.40;86.30
55711;DHT22;41612;51.994;5.880;2023-07-31T06:41:09;16.40;86.70
55711;DHT22;41612;51.994;5.880;2023-07-31T06:43:36;16.40;86.80
55711;DHT22;41612;51.994;5.880;2023-07-31T06:46:06;16.50;86.80
55711;DHT22;41612;51.994;5.880;2023-07-31T06:48:33;16.50;87.20
55711;DHT22;41612;51.994;5.880;2023-07-31T06:50:59;16.50;88.00
55711;DHT22;41612;51.994;5.880;2023-07-31T06:53:24;16.50;87.10
55711;DHT22;41612;51.994;5.880;2023-07-31T06:55:50;16.50;85.70
55711;DHT22;41612;51.994;5.880;2023-07-31T06:58:17;16.60;85.50
55711;DHT22;41612;51.994;5.880;2023-07-31T07:00:43;16.70;86.00
55711;DHT22;41612;51.994;5.880;2023-07-31T07:03:09;16.60;86.80
55711;DHT22;41612;51.994;5.880;2023-07-31T07:05:34;16.60;85.50
55711;DHT22;41612;51.994;5.880;2023-07-31T07:08:00;16.70;86.40
55711;DHT22;41612;51.994;5.880;2023-07-31T07:10:26;16.70;87.40
55711;DHT22;41612;51.994;5.880;2023-07-31T07:12:52;16.70;84.70
55711;DHT22;41612;51.994;5.880;2023-07-31T07:15:18;16.70;87.30
55711;DHT22;41612;51.994;5.880;2023-07-31T07:17:43;16.70;86.20
55711;DHT22;41612;51.994;5.880;2023-07-31T07:20:09;16.80;85.80
55711;DHT22;41612;51.994;5.880;2023-07-31T07:22:35;16.80;86.50
55711;DHT22;41612;51.994;5.880;2023-07-31T07:25:01;16.80;86.90
55711;DHT22;41612;51.994;5.880;2023-07-31T07:27:27;16.80;86.60
55711;DHT22;41612;51.994;5.880;2023-07-31T07:29:53;16.80;86.40
55711;DHT22;41612;51.994;5.880;2023-07-31T07:32:19;16.90;86.70
55711;DHT22;41612;51.994;5.880;2023-07-31T07:34:44;16.80;87.50
55711;DHT22;41612;51.994;5.880;2023-07-31T07:37:11;16.80;86.10
55711;DHT22;41612;51.994;5.880;2023-07-31T07:39:36;16.80;85.40
55711;DHT22;41612;51.994;5.880;2023-07-31T07:42:02;16.80;87.40
55711;DHT22;41612;51.994;5.880;2023-07-31T07:44:28;16.80;84.70
55711;DHT22;41612;51.994;5.880;2023-07-31T07:46:54;16.80;86.70
55711;DHT22;41612;51.994;5.880;2023-07-31T07:49:20;16.80;86.20
55711;DHT22;41612;51.994;5.880;2023-07-31T07:51:48;16.80;87.40
55711;DHT22;41612;51.994;5.880;2023-07-31T07:54:14;16.80;86.50
55711;DHT22;41612;51.994;5.880;2023-07-31T07:56:39;16.80;87.50
55711;DHT22;41612;51.994;5.880;2023-07-31T07:59:05;16.80;85.50
55711;DHT22;41612;51.994;5.880;2023-07-31T08:01:31;16.80;86.90
55711;DHT22;41612;51.994;5.880;2023-07-31T08:03:57;16.80;85.70
55711;DHT22;41612;51.994;5.880;2023-07-31T08:06:23;16.90;85.60
55711;DHT22;41612;51.994;5.880;2023-07-31T08:08:48;16.90;85.80
55711;DHT22;41612;51.994;5.880;2023-07-31T08:11:14;17.00;83.80
55711;DHT22;41612;51.994;5.880;2023-07-31T08:13:40;17.00;83.20
55711;DHT22;41612;51.994;5.880;2023-07-31T08:16:05;17.00;86.20
55711;DHT22;41612;51.994;5.880;2023-07-31T08:18:31;17.00;84.60
55711;DHT22;41612;51.994;5.880;2023-07-31T08:20:57;17.00;85.40
55711;DHT22;41612;51.994;5.880;2023-07-31T08:23:23;17.10;85.00
55711;DHT22;41612;51.994;5.880;2023-07-31T08:25:49;17.10;86.70
55711;DHT22;41612;51.994;5.880;2023-07-31T08:28:16;17.10;86.40
55711;DHT22;41612;51.994;5.880;2023-07-31T08:30:42;17.00;87.30
55711;DHT22;41612;51.994;5.880;2023-07-31T08:33:07;17.10;86.40
55711;DHT22;41612;51.994;5.880;2023-07-31T08:35:33;17.10;86.50
55711;DHT22;41612;51.994;5.880;2023-07-31T08:37:59;17.10;84.50
55711;DHT22;41612;51.994;5.880;2023-07-31T08:40:25;17.20;87.40
55711;DHT22;41612;51.994;5.880;2023-07-31T08:42:53;17.20;87.90
55711;DHT22;41612;51.994;5.880;2023-07-31T08:45:20;17.20;87.70
55711;DHT22;41612;51.994;5.880;2023-07-31T08:47:48;17.20;87.60
55711;DHT22;41612;51.994;5.880;2023-07-31T08:50:16;17.20;87.20
55711;DHT22;41612;51.994;5.880;2023-07-31T08:52:41;17.30;87.30
55711;DHT22;41612;51.994;5.880;2023-07-31T08:55:08;17.30;86.50
55711;DHT22;41612;51.994;5.880;2023-07-31T08:57:37;17.30;87.50
55711;DHT22;41612;51.994;5.880;2023-07-31T09:00:04;17.30;87.10
55711;DHT22;41612;51.994;5.880;2023-07-31T09:02:52;17.30;85.80
55711;DHT22;41612;51.994;5.880;2023-07-31T09:05:19;17.30;87.10
55711;DHT22;41612;51.994;5.880;2023-07-31T09:07:47;17.30;86.90
55711;DHT22;41612;51.994;5.880;2023-07-31T09:10:13;17.30;87.00
55711;DHT22;41612;51.994;5.880;2023-07-31T09:12:39;17.30;86.10
55711;DHT22;41612;51.994;5.880;2023-07-31T09:15:05;17.30;86.20
55711;DHT22;41612;51.994;5.880;2023-07-31T09:17:33;17.30;86.80
55711;DHT22;41612;51.994;5.880;2023-07-31T09:20:19;17.30;87.50
55711;DHT22;41612;51.994;5.880;2023-07-31T09:22:45;17.20;87.80
55711;DHT22;41612;51.994;5.880;2023-07-31T09:25:19;17.20;87.20
55711;DHT22;41612;51.994;5.880;2023-07-31T09:30:17;17.30;87.30
55711;DHT22;41612;51.994;5.880;2023-07-31T09:32:44;17.30;86.10
55711;DHT22;41612;51.994;5.880;2023-07-31T09:35:20;17.30;86.30
55711;DHT22;41612;51.994;5.880;2023-07-31T09:37:53;17.30;85.50
55711;DHT22;41612;51.994;5.880;2023-07-31T09:40:33;17.40;86.20
55711;DHT22;41612;51.994;5.880;2023-07-31T09:43:04;17.40;85.50
55711;DHT22;41612;51.994;5.880;2023-07-31T09:45:33;17.40;86.00
55711;DHT22;41612;51.994;5.880;2023-07-31T09:47:58;17.40;85.90
55711;DHT22;41612;51.994;5.880;2023-07-31T09:50:24;17.40;86.30
55711;DHT22;41612;51.994;5.880;2023-07-31T09:52:51;17.40;87.30
55711;DHT22;41612;51.994;5.880;2023-07-31T09:55:18;17.40;86.50
55711;DHT22;41612;51.994;5.880;2023-07-31T09:57:48;17.40;85.90
55711;DHT22;41612;51.994;5.880;2023-07-31T10:00:17;17.40;85.80
55711;DHT22;41612;51.994;5.880;2023-07-31T10:02:46;17.40;86.30
55711;DHT22;41612;51.994;5.880;2023-07-31T10:05:14;17.40;87.60
55711;DHT22;41612;51.994;5.880;2023-07-31T10:07:43;17.40;87.20
55711;DHT22;41612;51.994;5.880;2023-07-31T10:10:11;17.50;86.30
55711;DHT22;41612;51.994;5.880;2023-07-31T10:12:39;17.50;87.20
55711;DHT22;41612;51.994;5.880;2023-07-31T10:15:05;17.50;87.90
55711;DHT22;41612;51.994;5.880;2023-07-31T10:17:31;17.50;84.80
55711;DHT22;41612;51.994;5.880;2023-07-31T10:19:58;17.50;86.00
55711;DHT22;41612;51.994;5.880;2023-07-31T10:22:29;17.60;86.10
55711;DHT22;41612;51.994;5.880;2023-07-31T10:24:58;17.60;86.90
55711;DHT22;41612;51.994;5.880;2023-07-31T10:27:24;17.60;87.10
55711;DHT22;41612;51.994;5.880;2023-07-31T10:29:50;17.70;86.70
55711;DHT22;41612;51.994;5.880;2023-07-31T10:32:17;17.60;86.80
55711;DHT22;41612;51.994;5.880;2023-07-31T10:34:44;17.60;86.50
55711;DHT22;41612;51.994;5.880;2023-07-31T10:37:23;17.70;85.50
55711;DHT22;41612;51.994;5.880;2023-07-31T10:42:35;17.80;85.60
55711;DHT22;41612;51.994;5.880;2023-07-31T10:45:04;17.80;85.20
55711;DHT22;41612;51.994;5.880;2023-07-31T10:47:30;17.80;83.80
55711;DHT22;41612;51.994;5.880;2023-07-31T10:52:52;17.90;87.10
55711;DHT22;41612;51.994;5.880;2023-07-31T10:58:05;17.90;86.20
55711;DHT22;41612;51.994;5.880;2023-07-31T11:00:31;17.90;86.20
55711;DHT22;41612;51.994;5.880;2023-07-31T11:02:58;18.00;86.40
55711;DHT22;41612;51.994;5.880;2023-07-31T11:08:27;18.10;85.30
55711;DHT22;41612;51.994;5.880;2023-07-31T11:13:28;18.10;85.70
55711;DHT22;41612;51.994;5.880;2023-07-31T11:15:54;18.10;87.20
55711;DHT22;41612;51.994;5.880;2023-07-31T11:18:19;18.10;84.70
55711;DHT22;41612;51.994;5.880;2023-07-31T11:20:46;18.10;84.70
55711;DHT22;41612;51.994;5.880;2023-07-31T11:23:12;18.20;86.30
55711;DHT22;41612;51.994;5.880;2023-07-31T11:25:39;18.20;85.80
55711;DHT22;41612;51.994;5.880;2023-07-31T11:28:16;18.20;85.60
55711;DHT22;41612;51.994;5.880;2023-07-31T11:30:43;18.20;84.80
55711;DHT22;41612;51.994;5.880;2023-07-31T11:33:10;18.10;86.20
55711;DHT22;41612;51.994;5.880;2023-07-31T11:35:41;18.00;86.70
55711;DHT22;41612;51.994;5.880;2023-07-31T11:38:07;18.00;86.90
55711;DHT22;41612;51.994;5.880;2023-07-31T11:40:42;18.10;85.00
55711;DHT22;41612;51.994;5.880;2023-07-31T11:43:09;18.20;84.80
55711;DHT22;41612;51.994;5.880;2023-07-31T11:45:35;18.20;84.30
55711;DHT22;41612;51.994;5.880;2023-07-31T11:48:01;18.20;86.50
55711;DHT22;41612;51.994;5.880;2023-07-31T11:50:27;18.20;86.90
55711;DHT22;41612;51.994;5.880;2023-07-31T11:52:57;18.20;87.00
55711;DHT22;41612;51.994;5.880;2023-07-31T11:55:24;18.20;87.30
55711;DHT22;41612;51.994;5.880;2023-07-31T11:57:54;18.20;86.00
55711;DHT22;41612;51.994;5.880;2023-07-31T12:00:20;18.20;85.10
55711;DHT22;41612;51.994;5.880;2023-07-31T12:02:47;18.20;86.10
55711;DHT22;41612;51.994;5.880;2023-07-31T12:05:13;18.30;87.30
55711;DHT22;41612;51.994;5.880;2023-07-31T12:07:50;18.20;86.70
55711;DHT22;41612;51.994;5.880;2023-07-31T12:10:28;18.30;85.70
55711;DHT22;41612;51.994;5.880;2023-07-31T12:12:59;18.30;85.30
55711;DHT22;41612;51.994;5.880;2023-07-31T12:15:33;18.30;85.60
55711;DHT22;41612;51.994;5.880;2023-07-31T12:17:59;18.30;85.50
55711;DHT22;41612;51.994;5.880;2023-07-31T12:20:25;18.30;85.70
55711;DHT22;41612;51.994;5.880;2023-07-31T12:22:51;18.30;86.90
55711;DHT22;41612;51.994;5.880;2023-07-31T12:25:16;18.30;86.90
55711;DHT22;41612;51.994;5.880;2023-07-31T12:27:48;18.30;85.30
55711;DHT22;41612;51.994;5.880;2023-07-31T12:30:32;18.40;86.40
55711;DHT22;41612;51.994;5.880;2023-07-31T12:33:02;18.40;84.90
55711;DHT22;41612;51.994;5.880;2023-07-31T12:35:35;18.50;85.40
55711;DHT22;41612;51.994;5.880;2023-07-31T12:38:02;18.50;85.40
55711;DHT22;41612;51.994;5.880;2023-07-31T12:40:27;18.40;84.70
55711;DHT22;41612;51.994;5.880;2023-07-31T12:42:53;18.40;84.90
55711;DHT22;41612;51.994;5.880;2023-07-31T12:45:19;18.40;85.60
55711;DHT22;41612;51.994;5.880;2023-07-31T12:47:46;18.30;85.40
55711;DHT22;41612;51.994;5.880;2023-07-31T12:50:12;18.30;85.80
55711;DHT22;41612;51.994;5.880;2023-07-31T12:52:38;18.20;85.10
55711;DHT22;41612;51.994;5.880;2023-07-31T12:55:04;18.20;85.50
55711;DHT22;41612;51.994;5.880;2023-07-31T12:57:30;18.20;85.80
55711;DHT22;41612;51.994;5.880;2023-07-31T12:59:56;18.20;84.30
55711;DHT22;41612;51.994;5.880;2023-07-31T13:02:22;18.30;85.00
55711;DHT22;41612;51.994;5.880;2023-07-31T13:04:49;18.20;85.40
55711;DHT22;41612;51.994;5.880;2023-07-31T13:07:14;18.20;85.70
55711;DHT22;41612;51.994;5.880;2023-07-31T13:09:40;18.20;83.10
55711;DHT22;41612;51.994;5.880;2023-07-31T13:12:06;18.20;85.40
55711;DHT22;41612;51.994;5.880;2023-07-31T13:14:32;18.20;87.10
55711;DHT22;41612;51.994;5.880;2023-07-31T13:16:58;18.20;84.90
55711;DHT22;41612;51.994;5.880;2023-07-31T13:19:23;18.30;84.70
55711;DHT22;41612;51.994;5.880;2023-07-31T13:21:49;18.40;85.70
55711;DHT22;41612;51.994;5.880;2023-07-31T13:24:15;18.30;86.10
55711;DHT22;41612;51.994;5.880;2023-07-31T13:26:40;18.40;86.60
55711;DHT22;41612;51.994;5.880;2023-07-31T13:29:06;18.50;85.90
55711;DHT22;41612;51.994;5.880;2023-07-31T13:31:32;18.50;85.60
55711;DHT22;41612;51.994;5.880;2023-07-31T13:33:57;18.50;86.50
55711;DHT22;41612;51.994;5.880;2023-07-31T13:36:23;18.60;86.40
55711;DHT22;41612;51.994;5.880;2023-07-31T13:38:49;18.60;83.60
55711;DHT22;41612;51.994;5.880;2023-07-31T13:41:15;18.70;84.10
55711;DHT22;41612;51.994;5.880;2023-07-31T13:43:40;18.70;83.60
55711;DHT22;41612;51.994;5.880;2023-07-31T13:46:06;18.70;84.30
55711;DHT22;41612;51.994;5.880;2023-07-31T13:48:36;18.70;83.40
55711;DHT22;41612;51.994;5.880;2023-07-31T13:51:02;18.70;84.60
55711;DHT22;41612;51.994;5.880;2023-07-31T13:53:28;18.70;84.50
55711;DHT22;41612;51.994;5.880;2023-07-31T13:55:54;18.60;85.80
55711;DHT22;41612;51.994;5.880;2023-07-31T13:58:20;18.50;84.40
55711;DHT22;41612;51.994;5.880;2023-07-31T14:00:46;18.60;85.60
55711;DHT22;41612;51.994;5.880;2023-07-31T14:03:12;18.60;85.10
55711;DHT22;41612;51.994;5.880;2023-07-31T14:05:38;18.60;85.20
55711;DHT22;41612;51.994;5.880;2023-07-31T14:08:03;18.60;86.60
55711;DHT22;41612;51.994;5.880;2023-07-31T14:10:29;18.50;85.70
55711;DHT22;41612;51.994;5.880;2023-07-31T14:12:55;18.60;86.00
55711;DHT22;41612;51.994;5.880;2023-07-31T14:15:20;18.60;85.30
55711;DHT22;41612;51.994;5.880;2023-07-31T14:17:46;18.60;83.80
55711;DHT22;41612;51.994;5.880;2023-07-31T14:20:12;18.60;85.60
55711;DHT22;41612;51.994;5.880;2023-07-31T14:22:38;18.60;85.80
55711;DHT22;41612;51.994;5.880;2023-07-31T14:25:04;18.60;85.60
55711;DHT22;41612;51.994;5.880;2023-07-31T14:27:30;18.50;84.10
55711;DHT22;41612;51.994;5.880;2023-07-31T14:29:56;18.60;84.80
55711;DHT22;41612;51.994;5.880;2023-07-31T14:32:22;18.60;84.20
55711;DHT22;41612;51.994;5.880;2023-07-31T14:34:51;18.60;83.40
55711;DHT22;41612;51.994;5.880;2023-07-31T14:37:16;18.60;84.00
55711;DHT22;41612;51.994;5.880;2023-07-31T14:39:42;18.60;85.80
55711;DHT22;41612;51.994;5.880;2023-07-31T14:42:09;18.60;84.10
55711;DHT22;41612;51.994;5.880;2023-07-31T14:44:34;18.60;85.10
55711;DHT22;41612;51.994;5.880;2023-07-31T14:47:00;18.60;85.00
55711;DHT22;41612;51.994;5.880;2023-07-31T14:49:26;18.60;84.60
55711;DHT22;41612;51.994;5.880;2023-07-31T14:51:53;18.60;86.00
55711;DHT22;41612;51.994;5.880;2023-07-31T14:54:19;18.60;86.20
55711;DHT22;41612;51.994;5.880;2023-07-31T14:56:46;18.50;85.90
55711;DHT22;41612;51.994;5.880;2023-07-31T14:59:11;18.50;86.50
55711;DHT22;41612;51.994;5.880;2023-07-31T15:01:37;18.50;86.10
55711;DHT22;41612;51.994;5.880;2023-07-31T15:04:03;18.50;86.20
55711;DHT22;41612;51.994;5.880;2023-07-31T15:06:29;18.40;84.20
55711;DHT22;41612;51.994;5.880;2023-07-31T15:08:55;18.40;85.10
55711;DHT22;41612;51.994;5.880;2023-07-31T15:11:21;18.50;85.50
55711;DHT22;41612;51.994;5.880;2023-07-31T15:13:46;18.50;84.80
55711;DHT22;41612;51.994;5.880;2023-07-31T15:16:12;18.50;85.70
55711;DHT22;41612;51.994;5.880;2023-07-31T15:18:38;18.50;86.70
55711;DHT22;41612;51.994;5.880;2023-07-31T15:21:04;18.50;86.60
55711;DHT22;41612;51.994;5.880;2023-07-31T15:23:31;18.60;85.80
55711;DHT22;41612;51.994;5.880;2023-07-31T15:25:56;18.60;84.90
55711;DHT22;41612;51.994;5.880;2023-07-31T15:28:22;18.60;85.70
55711;DHT22;41612;51.994;5.880;2023-07-31T15:30:48;18.50;85.70
55711;DHT22;41612;51.994;5.880;2023-07-31T15:33:14;18.50;86.10
55711;DHT22;41612;51.994;5.880;2023-07-31T15:35:40;18.50;84.10
55711;DHT22;41612;51.994;5.880;2023-07-31T15:38:06;18.50;85.80
55711;DHT22;41612;51.994;5.880;2023-07-31T15:40:32;18.50;86.60
55711;DHT22;41612;51.994;5.880;2023-07-31T15:42:57;18.50;86.10
55711;DHT22;41612;51.994;5.880;2023-07-31T15:45:26;18.40;84.60
55711;DHT22;41612;51.994;5.880;2023-07-31T15:47:51;18.40;84.80
55711;DHT22;41612;51.994;5.880;2023-07-31T15:50:17;18.40;85.50